Aérodrome :
LOGIN :

S'inscrire | Disclaimer

   EN    FR    IT 

 










Légende :    VFR   VFR Marginal   IFR   IFR Intensif   IFR Très Intensif
Visi : 
Plafond : 
>= 8 km
>= 3000ft
5 à 8 km
1000 à 3000 ft
1500m à 5 km
500 à 1000 ft
800 à 1500m
200 à 500 ft
< 800m
< 200 ft
Symboles :   Orages  Brouillard  Fortes neiges  Fortes précipitations  Vent > 20 kt
SIGMETs :   Divers  Orages  Givrage  Turbulence  Onde Orograph.  Cendres Volcan.






- Altitude de l'aérodrome : 741 ft
- Code IATA : PED


LKPD - Pardubice AB

DERNIER METAR :
  • 280430Z 27004KT 9999 FEW024 SCT220 15/14 Q1020 NOSIG RMK BLU BLU

METARs EXPIRÉS :
  • 280400Z 28005KT 9999 FEW024 16/15 Q1020 NOSIG RMK BLU BLU
  • 280330Z 28005KT CAVOK 16/15 Q1020 RMK BLU
  • 280300Z 28006KT CAVOK 16/15 Q1020 RMK BLU
  • 280230Z 27006KT 8000 NSC 16/15 Q1020 RMK BLU
  • 280200Z 28005KT 8000 NSC 16/15 Q1019 RMK BLU

TAF TAF LKPD
Valide du 28 à 00h jusqu'au 29 à 00h UTC


272300Z 2800/2900 28006KT CAVOK
TEMPO 2800/2806 5000 RA BKN020
TEMPO 2802/2807 4000 MIFG BR BKN014
TEMPO 2811/2819 06010KT 5000 BKN020TCU
BECMG 2814/2816 11004KT
TEMPO 2820/2900 4000 MIFG BR BKN014



MET'MAP, la Météo Aéronautique d'un coup d'oeil ! - Copyright ORBIFLY Décembre 2007 - Disclaimer

ORBIFLY MET'MAP TEAM :

Programmation & Développement : Alexandra Zaïnal
Sur une idée originale de : Baudouin d'Aumeries
Assistance à la programmation : Marc-Olivier Méhu
Soutien technique & logistique : Manuel Goepfert

Contact : metmap@orbifly.com




SOURCES & CREDITS :

   NOAA